Time;durP1;ratioP1;P1;durP2;ratioP2;P2;SDS_P1;SDS_P2;PMS_P1;PMS_P2;Temp;Humidity;BMP_temperature;BMP_pressure;BME280_temperature;BME280_humidity;BME280_pressure;Samples;Min_cycle;Max_cycle;Signal;HPM_P1;HPM_P2
2021/08/25 00:02:16;;;;;;;3.10;2.20;;;10.90;99.90;;;;;;5055170;28;20041;-73
2021/08/25 00:04:43;;;;;;;3.15;2.15;;;10.80;99.90;;;;;;5055258;28;20433;-73
2021/08/25 00:07:10;;;;;;;2.47;1.92;;;10.70;99.90;;;;;;5055374;28;20049;-74
2021/08/25 00:09:38;;;;;;;5.95;3.05;;;10.70;99.90;;;;;;5054227;28;20053;-75
2021/08/25 00:12:05;;;;;;;5.30;2.08;;;10.70;99.90;;;;;;5054444;28;20049;-73
2021/08/25 00:14:32;;;;;;;3.92;2.72;;;10.70;99.90;;;;;;5055086;28;20405;-73
2021/08/25 00:16:59;;;;;;;3.80;2.10;;;10.70;99.90;;;;;;5055285;28;20413;-73
2021/08/25 00:19:27;;;;;;;4.20;1.98;;;10.60;99.90;;;;;;5054438;28;20098;-73
2021/08/25 00:21:54;;;;;;;4.13;2.22;;;10.50;99.90;;;;;;5055426;28;20099;-73
2021/08/25 00:24:21;;;;;;;4.03;2.80;;;10.50;99.90;;;;;;5054184;28;20481;-73
2021/08/25 00:26:47;;;;;;;6.03;2.58;;;10.60;99.90;;;;;;5054716;28;20468;-75
2021/08/25 00:29:14;;;;;;;3.25;2.10;;;10.50;99.90;;;;;;5058148;28;20045;-75
2021/08/25 00:31:41;;;;;;;3.38;1.90;;;10.60;99.90;;;;;;5057631;28;20048;-76
2021/08/25 00:34:07;;;;;;;4.43;1.98;;;10.60;99.90;;;;;;5054197;28;20099;-76
2021/08/25 00:36:35;;;;;;;5.05;3.38;;;10.70;99.90;;;;;;5055259;28;20049;-76
2021/08/25 00:39:02;;;;;;;4.75;2.13;;;10.60;99.90;;;;;;5054173;28;20049;-76
2021/08/25 00:41:29;;;;;;;2.83;2.10;;;10.60;99.90;;;;;;5054674;28;20501;-76
2021/08/25 00:43:56;;;;;;;7.55;2.17;;;10.50;99.90;;;;;;5054714;28;20041;-75
2021/08/25 00:46:23;;;;;;;5.28;2.28;;;10.50;99.90;;;;;;5054360;28;20493;-75
2021/08/25 00:48:50;;;;;;;2.15;1.88;;;10.40;99.90;;;;;;5053038;28;20083;-75
2021/08/25 00:51:18;;;;;;;3.45;2.03;;;10.30;99.90;;;;;;5054685;28;20045;-74
2021/08/25 00:53:46;;;;;;;3.78;2.00;;;10.30;99.90;;;;;;5053759;28;20045;-74
2021/08/25 00:56:13;;;;;;;4.43;2.63;;;10.20;99.90;;;;;;5051133;28;20049;-73
2021/08/25 00:58:41;;;;;;;3.63;2.50;;;10.10;99.90;;;;;;5052086;28;20067;-74
2021/08/25 01:01:14;;;;;;;4.88;2.65;;;10.10;99.90;;;;;;5054516;28;20045;-75
2021/08/25 01:03:45;;;;;;;3.53;2.25;;;10.20;99.90;;;;;;5054673;28;20048;-75
2021/08/25 01:06:14;;;;;;;;;;;10.20;99.90;;;;;;5054640;28;20049;-73
2021/08/25 01:08:41;;;;;;;4.50;1.60;;;10.20;99.90;;;;;;5053985;28;19978;-74
2021/08/25 01:11:10;;;;;;;3.40;1.98;;;10.20;99.90;;;;;;5054321;28;20045;-73
2021/08/25 01:13:37;;;;;;;4.82;2.10;;;10.10;99.90;;;;;;5053903;28;20055;-72
2021/08/25 01:16:04;;;;;;;3.85;2.70;;;10.00;99.90;;;;;;5054241;28;20041;-74
2021/08/25 01:18:31;;;;;;;2.83;1.92;;;9.90;99.90;;;;;;5053181;28;20620;-72
2021/08/25 01:20:59;;;;;;;5.25;2.05;;;9.90;99.90;;;;;;5053574;28;20138;-74
2021/08/25 01:23:26;;;;;;;4.78;2.72;;;9.70;99.90;;;;;;5052883;28;20127;-74
2021/08/25 01:25:56;;;;;;;3.08;2.15;;;9.70;99.90;;;;;;5054089;28;20045;-75
2021/08/25 01:28:27;;;;;;;4.60;2.13;;;9.50;99.90;;;;;;5052902;28;20041;-75
2021/08/25 01:30:55;;;;;;;4.00;1.85;;;9.50;99.90;;;;;;5053902;28;20052;-75
2021/08/25 01:33:23;;;;;;;3.60;2.15;;;9.40;99.90;;;;;;5053440;28;20052;-75
2021/08/25 01:35:50;;;;;;;3.60;2.05;;;9.30;99.90;;;;;;5052721;28;20045;-75
2021/08/25 01:38:24;;;;;;;4.40;3.25;;;9.30;99.90;;;;;;5053630;28;20099;-75
2021/08/25 01:40:51;;;;;;;3.22;2.58;;;9.20;99.90;;;;;;5053411;28;20095;-74
2021/08/25 01:43:18;;;;;;;4.13;2.78;;;9.20;99.90;;;;;;5053577;28;20049;-73
2021/08/25 01:45:44;;;;;;;3.92;3.00;;;9.20;99.90;;;;;;5053456;28;20440;-73
2021/08/25 01:48:12;;;;;;;6.05;2.85;;;9.10;99.90;;;;;;5053644;28;20090;-73
2021/08/25 01:50:39;;;;;;;2.38;2.08;;;9.00;99.90;;;;;;5052410;28;20041;-73
2021/08/25 01:53:06;;;;;;;4.28;2.50;;;9.00;99.90;;;;;;5052515;28;20115;-75
2021/08/25 01:55:33;;;;;;;3.72;2.38;;;8.90;99.90;;;;;;5052818;28;20102;-73
2021/08/25 01:58:00;;;;;;;4.43;2.40;;;8.80;99.90;;;;;;5053337;28;20102;-73
2021/08/25 02:00:27;;;;;;;4.90;2.05;;;8.70;99.90;;;;;;5052473;28;20045;-75
2021/08/25 02:02:53;;;;;;;3.53;1.90;;;8.70;99.90;;;;;;5052595;28;20048;-74
2021/08/25 02:05:21;;;;;;;6.82;2.15;;;8.70;99.90;;;;;;5053731;28;20106;-76
2021/08/25 02:07:48;;;;;;;5.78;2.13;;;8.70;99.90;;;;;;5053382;28;20049;-75
2021/08/25 02:10:15;;;;;;;3.85;2.20;;;8.70;99.90;;;;;;5052865;28;20106;-74
2021/08/25 02:12:41;;;;;;;5.20;2.23;;;8.70;99.90;;;;;;5052162;28;20049;-70
2021/08/25 02:15:09;;;;;;;5.53;2.35;;;8.70;99.90;;;;;;5046160;28;20046;-72
2021/08/25 02:17:35;;;;;;;4.27;2.37;;;8.70;99.90;;;;;;5042023;28;20472;-69
2021/08/25 02:20:02;;;;;;;5.35;2.50;;;8.60;99.90;;;;;;5048853;28;20102;-75
2021/08/25 02:22:30;;;;;;;4.57;3.05;;;8.60;99.90;;;;;;5052826;28;20547;-70
2021/08/25 02:24:57;;;;;;;4.75;2.63;;;8.60;99.90;;;;;;5052791;28;20122;-70
2021/08/25 02:27:23;;;;;;;5.70;2.60;;;8.50;99.90;;;;;;5052621;28;20049;-70
2021/08/25 02:29:55;;;;;;;3.05;2.20;;;8.50;99.90;;;;;;5051795;28;20053;-71
2021/08/25 02:32:22;;;;;;;4.70;2.53;;;8.50;99.90;;;;;;5052616;28;20040;-70
2021/08/25 02:34:49;;;;;;;5.28;3.45;;;8.50;99.90;;;;;;5052470;28;20045;-71
2021/08/25 02:37:15;;;;;;;4.20;2.30;;;8.50;99.90;;;;;;5039667;28;20049;-71
2021/08/25 02:39:43;;;;;;;4.25;2.95;;;8.50;99.90;;;;;;5071998;28;20048;-72
2021/08/25 02:42:10;;;;;;;5.90;2.55;;;8.50;99.90;;;;;;5072549;28;20045;-72
2021/08/25 02:44:36;;;;;;;6.60;2.58;;;8.40;99.90;;;;;;5072210;28;20485;-72
2021/08/25 02:47:04;;;;;;;3.00;2.20;;;8.40;99.90;;;;;;5072400;28;20045;-72
2021/08/25 02:49:30;;;;;;;3.38;2.50;;;8.40;99.90;;;;;;5071769;28;20045;-72
2021/08/25 02:51:57;;;;;;;3.40;2.22;;;8.50;99.90;;;;;;5072243;28;20048;-72
2021/08/25 02:54:24;;;;;;;5.85;2.05;;;8.50;99.90;;;;;;5072197;28;20071;-72
2021/08/25 02:56:52;;;;;;;4.87;2.00;;;8.50;99.90;;;;;;5071980;28;20101;-72
2021/08/25 02:59:18;;;;;;;3.63;2.72;;;8.50;99.90;;;;;;5071497;28;20044;-72
2021/08/25 03:01:45;;;;;;;8.45;3.42;;;8.50;99.90;;;;;;5071975;28;20044;-72
2021/08/25 03:04:11;;;;;;;5.07;2.67;;;8.50;99.90;;;;;;5071952;28;20052;-71
2021/08/25 03:06:38;;;;;;;5.28;2.63;;;8.50;99.90;;;;;;5072190;28;20547;-72
2021/08/25 03:09:05;;;;;;;4.45;2.55;;;8.50;99.90;;;;;;5072187;28;20098;-72
2021/08/25 03:11:33;;;;;;;2.83;2.33;;;8.40;99.90;;;;;;5072142;28;20044;-72
2021/08/25 03:14:01;;;;;;;6.35;3.08;;;8.30;99.90;;;;;;5072596;28;20044;-72
2021/08/25 03:16:27;;;;;;;3.83;2.42;;;8.30;99.90;;;;;;5072473;28;20097;-72
2021/08/25 03:18:54;;;;;;;6.68;3.30;;;8.20;99.90;;;;;;5072244;28;20052;-71
2021/08/25 03:21:21;;;;;;;5.53;3.20;;;8.10;99.90;;;;;;5072849;28;20048;-72
2021/08/25 03:23:47;;;;;;;3.23;2.57;;;8.10;99.90;;;;;;5073284;28;20044;-73
2021/08/25 03:26:14;;;;;;;4.70;3.07;;;8.00;99.90;;;;;;5073196;28;20106;-71
2021/08/25 03:28:40;;;;;;;5.77;2.80;;;8.00;99.90;;;;;;5072944;28;20052;-72
2021/08/25 03:31:08;;;;;;;4.43;2.73;;;8.00;99.90;;;;;;5073373;28;20044;-72
2021/08/25 03:33:35;;;;;;;4.80;2.93;;;8.10;99.90;;;;;;5072777;28;20048;-71
2021/08/25 03:36:01;;;;;;;5.73;2.83;;;8.10;99.90;;;;;;5072064;28;20056;-71
2021/08/25 03:38:28;;;;;;;6.83;2.57;;;8.10;99.90;;;;;;5071313;28;20100;-71
2021/08/25 03:40:55;;;;;;;5.50;2.30;;;8.00;99.90;;;;;;5071742;28;20557;-70
2021/08/25 03:43:21;;;;;;;4.63;2.03;;;7.90;99.90;;;;;;5071713;28;20044;-70
2021/08/25 03:45:48;;;;;;;6.00;2.80;;;7.90;99.90;;;;;;5071609;28;20101;-71
2021/08/25 03:48:16;;;;;;;3.20;2.37;;;7.90;99.90;;;;;;5072935;28;20094;-72
2021/08/25 03:50:43;;;;;;;4.50;2.87;;;7.90;99.90;;;;;;5072127;28;20125;-72
2021/08/25 03:53:10;;;;;;;5.47;3.10;;;7.90;99.90;;;;;;5072300;28;20044;-72
2021/08/25 03:55:36;;;;;;;5.37;2.10;;;7.90;99.90;;;;;;5072349;28;20119;-72
2021/08/25 03:58:03;;;;;;;4.67;2.30;;;7.90;99.90;;;;;;5072238;28;20044;-72
2021/08/25 04:00:30;;;;;;;4.33;2.80;;;7.80;99.90;;;;;;5070910;28;20049;-70
2021/08/25 04:02:56;;;;;;;3.57;2.83;;;7.80;99.90;;;;;;5071715;28;20102;-71
2021/08/25 04:05:24;;;;;;;4.70;2.50;;;7.70;99.90;;;;;;5071388;28;20045;-71
2021/08/25 04:07:51;;;;;;;4.70;3.27;;;7.70;99.90;;;;;;5071314;28;20493;-71
2021/08/25 04:10:17;;;;;;;5.70;2.90;;;7.70;99.90;;;;;;5070757;28;20040;-70
2021/08/25 04:12:44;;;;;;;4.03;2.53;;;7.70;99.90;;;;;;5071465;28;20467;-71
2021/08/25 04:15:11;;;;;;;4.33;2.93;;;7.70;99.90;;;;;;5071652;28;20045;-70
2021/08/25 04:17:38;;;;;;;4.43;2.70;;;7.70;99.90;;;;;;5071751;28;20044;-70
2021/08/25 04:20:05;;;;;;;4.70;2.83;;;7.70;99.90;;;;;;5070744;28;20056;-70
2021/08/25 04:22:33;;;;;;;5.40;3.03;;;7.70;99.90;;;;;;5071174;28;20497;-71
2021/08/25 04:25:00;;;;;;;3.37;2.83;;;7.60;99.90;;;;;;5073437;28;20052;-71
2021/08/25 04:27:26;;;;;;;5.97;2.53;;;7.60;99.90;;;;;;5074777;28;20044;-70
2021/08/25 04:29:53;;;;;;;7.03;3.97;;;7.60;99.90;;;;;;5074120;28;20040;-71
2021/08/25 04:32:19;;;;;;;3.07;2.57;;;7.70;99.90;;;;;;5074783;28;20049;-70
2021/08/25 04:34:46;;;;;;;7.40;2.80;;;7.70;99.90;;;;;;5074753;28;20048;-71
2021/08/25 04:37:13;;;;;;;5.50;3.10;;;7.80;99.90;;;;;;5074592;28;20408;-71
2021/08/25 04:39:40;;;;;;;4.37;3.23;;;7.80;99.90;;;;;;5074007;28;20470;-71
2021/08/25 04:42:07;;;;;;;5.33;2.83;;;7.90;99.90;;;;;;5074264;28;20093;-71
2021/08/25 04:44:34;;;;;;;5.37;3.87;;;7.80;99.90;;;;;;5074679;28;20053;-70
2021/08/25 04:47:01;;;;;;;5.53;3.73;;;7.90;99.90;;;;;;5074736;28;20048;-71
2021/08/25 04:49:27;;;;;;;6.70;3.63;;;7.90;99.90;;;;;;5073854;28;20044;-71
2021/08/25 04:51:54;;;;;;;5.83;3.43;;;7.90;99.90;;;;;;5074312;28;20695;-71
2021/08/25 04:54:20;;;;;;;3.43;3.13;;;8.00;99.90;;;;;;5073876;28;20040;-70
2021/08/25 04:56:48;;;;;;;5.73;3.03;;;8.00;99.90;;;;;;5073691;28;20057;-71
2021/08/25 04:59:15;;;;;;;7.53;3.73;;;8.00;99.90;;;;;;5073823;28;20094;-70
2021/08/25 05:01:41;;;;;;;6.20;3.20;;;8.00;99.90;;;;;;5073792;28;20451;-71
2021/08/25 05:04:08;;;;;;;5.83;3.30;;;8.10;99.90;;;;;;5073810;28;20044;-71
2021/08/25 05:06:35;;;;;;;6.03;3.10;;;8.20;99.90;;;;;;5073759;28;20048;-71
2021/08/25 05:09:01;;;;;;;6.33;3.57;;;8.20;99.90;;;;;;5073276;28;20044;-71
2021/08/25 05:11:28;;;;;;;6.07;2.57;;;8.40;99.90;;;;;;5073720;28;20048;-72
2021/08/25 05:13:56;;;;;;;7.03;2.90;;;8.50;99.90;;;;;;5073792;28;20098;-71
2021/08/25 05:16:22;;;;;;;7.00;3.33;;;8.50;99.90;;;;;;5073725;28;20174;-72
2021/08/25 05:18:49;;;;;;;5.70;3.10;;;8.60;99.90;;;;;;5073109;28;20041;-72
2021/08/25 05:21:15;;;;;;;9.10;4.53;;;8.70;99.90;;;;;;5073303;28;20311;-71
2021/08/25 05:23:42;;;;;;;6.18;3.88;;;8.90;99.90;;;;;;5073316;28;20048;-71
2021/08/25 05:26:09;;;;;;;7.00;3.92;;;8.90;99.90;;;;;;5073559;28;20048;-70
2021/08/25 05:28:36;;;;;;;29.65;13.13;;;9.00;99.90;;;;;;5073221;28;20246;-70
2021/08/25 05:31:04;;;;;;;33.58;16.05;;;9.20;99.90;;;;;;5073228;28;20090;-71
2021/08/25 05:33:31;;;;;;;23.63;15.48;;;9.50;99.90;;;;;;5073203;28;20484;-71
2021/08/25 05:35:58;;;;;;;33.53;16.55;;;9.70;99.90;;;;;;5072131;28;20098;-71
2021/08/25 05:38:25;;;;;;;37.35;20.95;;;9.90;99.90;;;;;;5072463;28;20561;-71
2021/08/25 05:40:51;;;;;;;60.92;33.63;;;10.10;99.90;;;;;;5073212;28;20048;-72
2021/08/25 05:43:18;;;;;;;44.00;22.73;;;10.20;99.90;;;;;;5073073;28;20044;-72
2021/08/25 05:45:45;;;;;;;38.90;22.27;;;10.40;99.90;;;;;;5072670;28;20512;-71
2021/08/25 05:48:13;;;;;;;36.42;19.73;;;10.60;99.90;;;;;;5073254;28;20044;-72
2021/08/25 05:50:40;;;;;;;52.95;26.92;;;11.00;99.90;;;;;;5072397;28;20049;-72
2021/08/25 05:53:07;;;;;;;22.45;11.63;;;11.50;99.90;;;;;;5072976;28;20154;-72
2021/08/25 05:55:33;;;;;;;32.10;19.05;;;11.70;99.90;;;;;;5073253;28;20098;-72
2021/08/25 05:58:00;;;;;;;35.65;20.15;;;12.10;99.90;;;;;;5072799;28;20107;-71
2021/08/25 06:00:27;;;;;;;17.10;8.65;;;12.40;99.90;;;;;;5072336;28;20496;-71
2021/08/25 06:02:53;;;;;;;54.08;28.38;;;12.60;99.90;;;;;;5072646;28;20042;-72
2021/08/25 06:05:21;;;;;;;35.97;19.75;;;13.10;99.90;;;;;;5072478;28;20052;-71
2021/08/25 06:07:48;;;;;;;35.97;18.40;;;13.60;99.90;;;;;;5072733;28;20094;-71
2021/08/25 06:10:14;;;;;;;15.98;8.70;;;14.00;99.90;;;;;;5072786;28;20045;-71
2021/08/25 06:12:41;;;;;;;5.03;3.72;;;14.30;99.90;;;;;;5072922;28;20455;-71
2021/08/25 06:15:08;;;;;;;10.65;5.28;;;14.50;99.90;;;;;;5073163;28;20044;-71
2021/08/25 06:17:35;;;;;;;5.20;3.83;;;14.60;99.90;;;;;;5072981;28;20102;-71
2021/08/25 06:20:02;;;;;;;31.10;17.08;;;14.80;99.90;;;;;;5072007;28;20048;-71
2021/08/25 06:22:29;;;;;;;17.63;10.35;;;15.20;99.90;;;;;;5072898;28;20166;-71
2021/08/25 06:24:57;;;;;;;28.23;14.40;;;15.70;99.90;;;;;;5072722;28;20090;-72
2021/08/25 06:27:24;;;;;;;43.42;21.10;;;16.30;99.90;;;;;;5073093;28;20098;-71
2021/08/25 06:29:50;;;;;;;20.08;11.35;;;16.70;99.90;;;;;;5071715;28;20082;-71
2021/08/25 06:32:17;;;;;;;15.82;8.52;;;16.80;99.90;;;;;;5072298;28;20098;-71
2021/08/25 06:34:44;;;;;;;7.68;3.75;;;17.00;99.90;;;;;;5072062;28;20105;-71
2021/08/25 06:37:10;;;;;;;16.88;8.90;;;16.60;99.90;;;;;;5072484;28;20090;-71
2021/08/25 06:39:38;;;;;;;10.25;5.88;;;16.80;99.90;;;;;;5071680;28;20049;-71
2021/08/25 06:42:05;;;;;;;5.43;4.15;;;17.00;99.90;;;;;;5072257;28;20041;-71
2021/08/25 06:44:31;;;;;;;5.60;3.58;;;16.90;99.90;;;;;;5072244;28;20094;-72
2021/08/25 06:46:58;;;;;;;3.75;2.88;;;17.20;99.90;;;;;;5071368;28;20493;-71
2021/08/25 06:49:25;;;;;;;14.68;8.48;;;17.20;99.90;;;;;;5071812;28;20052;-72
2021/08/25 06:51:51;;;;;;;12.50;7.13;;;17.30;99.90;;;;;;5072335;28;20044;-72
2021/08/25 06:54:18;;;;;;;5.70;3.88;;;17.50;99.90;;;;;;5072288;28;20651;-72
2021/08/25 06:56:46;;;;;;;12.35;6.38;;;17.60;99.90;;;;;;5071948;28;20094;-72
2021/08/25 06:59:13;;;;;;;11.07;5.97;;;17.70;99.90;;;;;;5071470;28;20052;-72
2021/08/25 07:01:40;;;;;;;8.60;5.22;;;17.90;99.90;;;;;;5071511;28;20041;-71
2021/08/25 07:04:06;;;;;;;15.43;9.75;;;17.80;99.90;;;;;;5071819;28;20041;-72
2021/08/25 07:06:33;;;;;;;4.47;2.83;;;17.80;99.90;;;;;;5071967;28;20078;-72
2021/08/25 07:08:59;;;;;;;23.40;10.65;;;17.90;99.90;;;;;;5071672;28;20113;-72
2021/08/25 07:11:26;;;;;;;7.07;4.20;;;18.00;99.90;;;;;;5071707;28;20101;-72
2021/08/25 07:13:54;;;;;;;7.90;5.07;;;18.30;99.90;;;;;;5071612;28;20044;-72
2021/08/25 07:16:20;;;;;;;5.15;3.75;;;18.40;99.90;;;;;;5071485;28;20097;-72
2021/08/25 07:18:48;;;;;;;5.15;2.83;;;18.50;99.90;;;;;;5071279;28;20049;-72
2021/08/25 07:21:15;;;;;;;5.93;3.63;;;18.80;99.90;;;;;;5071759;28;20106;-72
2021/08/25 07:23:42;;;;;;;3.78;2.47;;;18.70;99.90;;;;;;5071925;28;20086;-70
2021/08/25 07:26:08;;;;;;;5.65;2.42;;;19.40;99.90;;;;;;5071347;28;20075;-71
2021/08/25 07:28:35;;;;;;;7.40;4.35;;;19.80;99.90;;;;;;5070850;28;20044;-72
2021/08/25 07:31:03;;;;;;;6.05;3.55;;;20.30;99.90;;;;;;5071372;28;20099;-72
2021/08/25 07:33:29;;;;;;;3.80;2.88;;;20.30;99.90;;;;;;5071670;28;20044;-72
2021/08/25 07:35:56;;;;;;;5.15;2.05;;;20.70;98.80;;;;;;5071982;28;20397;-72
2021/08/25 07:38:22;;;;;;;3.42;2.20;;;20.90;96.90;;;;;;5071110;28;20045;-72
2021/08/25 07:40:49;;;;;;;5.20;2.65;;;20.80;96.40;;;;;;5071404;28;20040;-72
2021/08/25 07:43:16;;;;;;;5.40;1.88;;;20.50;96.10;;;;;;5071437;28;20102;-72
2021/08/25 07:45:42;;;;;;;7.40;3.70;;;20.30;95.50;;;;;;5071540;28;20048;-72
2021/08/25 07:48:10;;;;;;;6.38;2.53;;;20.50;96.50;;;;;;5071461;28;20040;-72
2021/08/25 07:50:37;;;;;;;3.42;2.20;;;20.90;95.40;;;;;;5071207;28;20049;-72
2021/08/25 07:53:04;;;;;;;3.95;2.60;;;21.40;96.00;;;;;;5071771;28;20455;-72
2021/08/25 07:55:30;;;;;;;9.23;3.33;;;21.60;94.30;;;;;;5071384;28;20048;-72
2021/08/25 07:57:57;;;;;;;3.30;1.95;;;21.60;92.00;;;;;;5071290;28;20045;-71
2021/08/25 08:00:23;;;;;;;3.67;2.65;;;21.40;92.40;;;;;;5077081;28;20048;-72
2021/08/25 08:02:50;;;;;;;4.63;2.47;;;21.30;91.40;;;;;;5075234;28;20045;-72
2021/08/25 08:05:18;;;;;;;3.30;2.13;;;21.00;92.30;;;;;;5075230;28;20546;-72
2021/08/25 08:07:45;;;;;;;4.80;2.63;;;21.10;91.50;;;;;;5075599;28;20044;-72
2021/08/25 08:10:12;;;;;;;6.22;2.30;;;21.60;90.80;;;;;;5074298;28;20086;-72
2021/08/25 08:12:39;;;;;;;6.53;2.75;;;21.70;88.50;;;;;;5074848;28;20048;-73
2021/08/25 08:15:10;;;;;;;7.55;2.85;;;22.10;89.10;;;;;;5075241;28;20640;-72
2021/08/25 08:17:37;;;;;;;3.67;2.22;;;22.10;86.70;;;;;;5075536;28;20044;-72
2021/08/25 08:20:05;;;;;;;3.85;2.40;;;22.20;85.20;;;;;;5074769;28;20853;-71
2021/08/25 08:22:33;;;;;;;5.80;3.13;;;22.70;86.70;;;;;;5074818;28;20070;-71
2021/08/25 08:24:59;;;;;;;6.63;2.22;;;23.00;78.00;;;;;;5074687;28;20193;-71
2021/08/25 08:27:26;;;;;;;3.95;2.38;;;23.00;76.70;;;;;;5075016;28;20052;-72
2021/08/25 08:29:52;;;;;;;7.15;4.45;;;22.60;73.00;;;;;;5074118;28;20048;-72
2021/08/25 08:32:19;;;;;;;3.90;2.05;;;22.70;74.00;;;;;;5074871;28;20492;-71
2021/08/25 08:34:46;;;;;;;5.38;2.20;;;22.70;71.90;;;;;;5074660;28;20102;-71
2021/08/25 08:37:12;;;;;;;7.30;4.65;;;22.40;76.50;;;;;;5074935;28;20052;-72
2021/08/25 08:39:40;;;;;;;3.60;2.10;;;22.90;77.60;;;;;;5073959;28;20126;-72
2021/08/25 08:42:07;;;;;;;4.28;2.90;;;23.60;71.80;;;;;;5074835;28;20098;-71
2021/08/25 08:44:36;;;;;;;4.55;2.20;;;24.20;70.00;;;;;;5074747;28;20094;-72
2021/08/25 08:47:03;;;;;;;6.38;3.25;;;24.20;69.00;;;;;;5074949;28;20463;-71
2021/08/25 08:49:29;;;;;;;8.70;4.72;;;24.10;68.50;;;;;;5074104;28;20106;-74
2021/08/25 08:51:57;;;;;;;5.35;2.58;;;24.00;68.60;;;;;;5074300;28;20048;-71
2021/08/25 08:54:23;;;;;;;5.63;2.67;;;22.50;69.00;;;;;;5074563;28;20094;-72
2021/08/25 08:56:51;;;;;;;7.15;3.92;;;23.00;71.90;;;;;;5074079;28;20477;-72
2021/08/25 08:59:18;;;;;;;3.55;1.80;;;22.70;72.50;;;;;;5073884;28;20098;-72
2021/08/25 09:01:45;;;;;;;5.70;3.55;;;22.80;71.40;;;;;;5074298;28;20044;-72
2021/08/25 09:04:31;;;;;;;11.10;6.10;;;22.50;71.90;;;;;;5074020;28;20489;-73
2021/08/25 09:06:58;;;;;;;5.22;3.05;;;22.70;68.90;;;;;;5074258;28;20098;-72
2021/08/25 09:09:24;;;;;;;4.85;2.70;;;22.60;71.20;;;;;;5073570;28;20048;-72
2021/08/25 09:11:54;;;;;;;4.85;2.25;;;22.40;72.60;;;;;;5074205;28;20037;-72
2021/08/25 09:14:25;;;;;;;3.78;2.03;;;22.00;70.60;;;;;;5074065;28;20045;-72
2021/08/25 09:16:51;;;;;;;6.90;2.70;;;21.80;72.40;;;;;;5074290;28;20044;-72
2021/08/25 09:19:18;;;;;;;14.02;7.35;;;21.50;74.40;;;;;;5073324;28;20488;-71
2021/08/25 09:21:47;;;;;;;3.50;2.17;;;21.60;74.10;;;;;;5073696;28;20094;-71
2021/08/25 09:24:14;;;;;;;3.88;1.77;;;21.20;73.60;;;;;;5073612;28;20052;-71
2021/08/25 09:27:06;;;;;;;7.88;3.28;;;20.50;74.20;;;;;;5073374;28;20542;-71
2021/08/25 09:29:33;;;;;;;7.38;3.33;;;20.60;76.60;;;;;;5072979;28;20048;-72
2021/08/25 09:32:00;;;;;;;5.18;3.05;;;20.30;80.80;;;;;;5075078;28;20098;-72
2021/08/25 09:34:28;;;;;;;3.92;1.73;;;20.80;78.10;;;;;;5076454;28;20098;-72
2021/08/25 09:37:08;;;;;;;5.18;2.67;;;20.70;76.60;;;;;;5075593;28;20106;-72
2021/08/25 09:39:35;;;;;;;4.15;1.65;;;20.90;79.30;;;;;;5075122;28;20040;-73
2021/08/25 09:42:04;;;;;;;13.82;5.97;;;20.70;77.90;;;;;;5074978;28;20044;-72
2021/08/25 09:44:32;;;;;;;4.85;2.08;;;20.20;80.30;;;;;;5075636;28;20068;-72
2021/08/25 09:46:59;;;;;;;3.75;2.10;;;20.30;81.20;;;;;;5074934;28;20048;-73
2021/08/25 09:49:26;;;;;;;4.93;2.58;;;19.90;81.00;;;;;;5074798;28;20052;-72
2021/08/25 09:51:54;;;;;;;9.60;4.18;;;19.80;81.60;;;;;;5074901;28;20048;-72
2021/08/25 09:54:21;;;;;;;6.25;3.45;;;19.80;87.50;;;;;;5075148;28;20049;-72
2021/08/25 09:56:52;;;;;;;7.47;5.25;;;19.80;88.00;;;;;;5075023;28;20048;-73
2021/08/25 09:59:19;;;;;;;15.25;7.25;;;19.90;86.80;;;;;;5074811;28;20489;-72
2021/08/25 10:01:49;;;;;;;4.78;2.72;;;19.70;87.40;;;;;;5074878;28;20052;-70
2021/08/25 10:04:16;;;;;;;3.53;3.22;;;19.60;86.00;;;;;;5073108;28;20051;-71
2021/08/25 10:06:46;;;;;;;5.70;3.40;;;19.20;88.30;;;;;;5072771;28;20102;-71
2021/08/25 10:09:13;;;;;;;9.23;5.20;;;19.20;90.10;;;;;;5072122;28;20049;-72
2021/08/25 10:11:43;;;;;;;7.63;3.63;;;19.40;90.70;;;;;;5072845;28;20497;-71
2021/08/25 10:14:11;;;;;;;20.50;10.10;;;19.40;91.40;;;;;;5073181;28;20044;-71
2021/08/25 10:16:43;;;;;;;4.22;2.08;;;19.50;91.70;;;;;;5073632;28;20052;-72
2021/08/25 10:19:41;;;;;;;2.95;1.60;;;19.00;90.70;;;;;;5072630;28;20140;-71
2021/08/25 10:22:24;;;;;;;7.32;3.47;;;19.00;91.40;;;;;;5010511;28;20085;-72
2021/08/25 10:25:00;;;;;;;6.60;2.80;;;19.10;92.20;;;;;;5065271;28;20461;-72
2021/08/25 10:27:30;;;;;;;4.82;2.88;;;19.20;93.40;;;;;;5072774;28;20052;-71
2021/08/25 10:30:11;;;;;;;12.75;6.10;;;19.10;92.70;;;;;;5072806;28;20048;-72
2021/08/25 10:32:59;;;;;;;2.28;1.48;;;19.40;93.80;;;;;;5072146;28;20098;-72
2021/08/25 10:35:32;;;;;;;9.10;3.90;;;19.30;92.60;;;;;;5071693;28;20435;-71
2021/08/25 10:38:21;;;;;;;4.78;2.65;;;19.20;94.00;;;;;;5072043;28;20044;-71
2021/08/25 10:40:48;;;;;;;3.50;1.45;;;19.10;93.90;;;;;;5072127;28;20049;-72
2021/08/25 10:43:42;;;;;;;4.55;2.33;;;18.90;94.60;;;;;;5072599;28;20044;-71
2021/08/25 10:46:10;;;;;;;3.30;2.75;;;18.90;94.70;;;;;;5072642;28;20044;-72
2021/08/25 10:48:45;;;;;;;3.60;1.77;;;19.00;95.70;;;;;;5072091;28;20072;-72
2021/08/25 10:51:27;;;;;;;5.82;2.55;;;18.70;95.30;;;;;;5073193;28;20040;-73
2021/08/25 10:53:54;;;;;;;4.50;2.20;;;18.80;97.00;;;;;;5072264;28;20041;-72
2021/08/25 10:56:31;;;;;;;4.80;2.10;;;18.80;96.10;;;;;;5072428;28;20102;-71
2021/08/25 10:59:02;;;;;;;3.75;1.83;;;18.80;95.70;;;;;;5074696;28;20071;-71
2021/08/25 11:01:31;;;;;;;3.95;2.30;;;18.70;96.00;;;;;;5074930;28;20075;-71
2021/08/25 11:03:59;;;;;;;4.90;2.40;;;18.50;95.70;;;;;;5074894;28;20102;-72
2021/08/25 11:06:39;;;;;;;3.03;2.15;;;18.80;96.80;;;;;;5072769;28;20044;-72
2021/08/25 11:09:17;;;;;;;4.07;2.13;;;18.90;97.30;;;;;;5071266;28;20045;-72
2021/08/25 11:11:46;;;;;;;3.28;2.05;;;18.80;96.20;;;;;;5072315;28;20048;-72
2021/08/25 11:14:27;;;;;;;4.40;2.42;;;18.80;96.40;;;;;;5072266;28;20424;-70
2021/08/25 11:16:56;;;;;;;3.15;2.20;;;18.80;96.20;;;;;;5078986;28;20052;-72
2021/08/25 11:19:25;;;;;;;6.07;2.05;;;18.90;95.90;;;;;;5071353;28;20044;-72
2021/08/25 11:21:53;;;;;;;3.28;2.30;;;18.90;96.50;;;;;;5071149;28;20094;-72
2021/08/25 11:24:20;;;;;;;3.45;2.00;;;19.20;97.20;;;;;;5071684;28;20056;-72
2021/08/25 11:26:47;;;;;;;4.15;1.42;;;19.40;95.80;;;;;;5073011;28;20049;-73
2021/08/25 11:29:19;;;;;;;4.63;1.92;;;19.80;95.10;;;;;;5072513;28;20049;-73
2021/08/25 11:31:46;;;;;;;7.38;2.30;;;20.10;94.00;;;;;;5073190;28;20044;-72
2021/08/25 11:34:13;;;;;;;6.90;2.55;;;20.50;94.50;;;;;;5075686;28;20044;-73
2021/08/25 11:36:54;;;;;;;4.70;2.05;;;21.40;93.60;;;;;;5077305;28;20048;-73
2021/08/25 11:39:20;;;;;;;4.97;2.13;;;22.20;91.80;;;;;;5076630;28;20470;-72
2021/08/25 11:41:47;;;;;;;4.80;2.15;;;23.10;88.00;;;;;;5076150;28;20362;-71
2021/08/25 11:44:14;;;;;;;3.65;2.92;;;22.80;81.30;;;;;;5075500;28;20045;-72
2021/08/25 11:46:41;;;;;;;5.30;2.17;;;23.40;83.30;;;;;;5075450;28;20041;-72
2021/08/25 11:49:08;;;;;;;2.88;1.67;;;23.80;79.10;;;;;;5074664;28;20045;-72
2021/08/25 11:51:38;;;;;;;4.18;1.98;;;23.00;77.70;;;;;;5075966;28;20570;-72
2021/08/25 11:54:05;;;;;;;3.53;1.75;;;22.30;81.90;;;;;;5075684;28;20462;-73
2021/08/25 11:56:32;;;;;;;9.25;4.93;;;22.30;82.60;;;;;;5075713;28;20465;-73
2021/08/25 11:59:08;;;;;;;2.95;1.85;;;22.40;82.20;;;;;;5074896;28;20052;-71
2021/08/25 12:01:35;;;;;;;4.28;1.80;;;21.60;83.20;;;;;;5079224;28;20067;-72
2021/08/25 12:04:02;;;;;;;2.50;2.20;;;22.10;84.70;;;;;;5075660;28;20455;-72
2021/08/25 12:06:42;;;;;;;3.47;2.08;;;22.50;81.90;;;;;;5075206;28;20059;-71
2021/08/25 12:09:10;;;;;;;3.80;1.90;;;23.40;80.90;;;;;;5075010;28;20055;-72
2021/08/25 12:11:55;;;;;;;2.28;1.48;;;24.00;76.00;;;;;;5075548;28;20409;-73
2021/08/25 12:14:22;;;;;;;2.63;1.92;;;24.30;77.40;;;;;;5075735;28;20139;-71
2021/08/25 12:17:03;;;;;;;3.25;2.03;;;24.80;72.50;;;;;;5075633;28;20053;-72
2021/08/25 12:19:30;;;;;;;3.38;1.70;;;25.10;73.00;;;;;;5074864;28;20055;-72
2021/08/25 12:21:57;;;;;;;3.90;2.20;;;24.90;70.10;;;;;;5075715;28;20044;-72
2021/08/25 12:24:25;;;;;;;3.22;1.95;;;23.80;71.50;;;;;;5075711;28;20090;-74
2021/08/25 12:26:56;;;;;;;2.47;1.48;;;23.90;72.80;;;;;;5075003;28;20041;-72
2021/08/25 12:29:30;;;;;;;5.55;3.00;;;23.10;74.00;;;;;;5074052;28;20071;-72
2021/08/25 12:31:58;;;;;;;5.20;1.92;;;22.80;75.70;;;;;;5074527;28;20048;-72
2021/08/25 12:34:24;;;;;;;4.28;2.35;;;22.40;77.50;;;;;;5074471;28;20049;-73
2021/08/25 12:36:56;;;;;;;2.85;1.58;;;23.20;77.00;;;;;;5074799;28;20106;-73
2021/08/25 12:39:23;;;;;;;;;;;23.70;75.80;;;;;;5074972;28;20047;-73
2021/08/25 12:41:52;;;;;;;2.97;1.50;;;23.60;76.30;;;;;;5074599;28;20396;-74
2021/08/25 12:44:20;;;;;;;3.28;1.98;;;23.90;75.70;;;;;;5074009;28;20094;-74
2021/08/25 12:46:54;;;;;;;2.97;1.70;;;24.10;76.70;;;;;;5074245;28;20487;-74
2021/08/25 12:49:21;;;;;;;2.42;1.38;;;23.80;74.80;;;;;;5073511;28;20512;-74
2021/08/25 12:51:48;;;;;;;5.85;2.42;;;23.60;75.90;;;;;;5074546;28;20048;-75
2021/08/25 12:54:14;;;;;;;4.13;2.00;;;23.30;77.70;;;;;;5074565;28;20044;-73